Time;durP1;ratioP1;P1;durP2;ratioP2;P2;SDS_P1;SDS_P2;PMS_P1;PMS_P2;Temp;Humidity;BMP_temperature;BMP_pressure;BME280_temperature;BME280_humidity;BME280_pressure;Samples;Min_cycle;Max_cycle;Signal;HPM_P1;HPM_P2
2021/07/15 00:01:16;;;;;;;546.90;115.90;;;;;;;;;;5017315;28;20424;-77
2021/07/15 00:03:42;;;;;;;544.00;114.00;;;;;;;;;;5020996;28;20819;-77
2021/07/15 00:06:08;;;;;;;548.57;118.43;;;;;;;;;;5033459;28;20412;-77
2021/07/15 00:08:34;;;;;;;561.47;117.57;;;;;;;;;;5019310;28;20445;-77
2021/07/15 00:11:10;;;;;;;535.20;111.10;;;17.80;99.90;;;;;;5029938;28;20417;-77
2021/07/15 00:13:36;;;;;;;529.63;108.73;;;;;;;;;;5034683;28;20421;-77
2021/07/15 00:16:04;;;;;;;561.23;128.13;;;;;;;;;;5029450;28;20475;-77
2021/07/15 00:18:35;;;;;;;527.57;109.30;;;17.80;99.90;;;;;;5020366;28;20473;-76
2021/07/15 00:21:02;;;;;;;530.17;109.40;;;17.80;99.90;;;;;;5015379;28;20451;-76
2021/07/15 00:23:28;;;;;;;535.43;108.87;;;;;;;;;;5033206;28;20423;-77
2021/07/15 00:25:55;;;;;;;528.53;109.33;;;17.80;99.90;;;;;;5025664;28;20463;-76
2021/07/15 00:28:21;;;;;;;526.80;108.27;;;;;;;;;;5034632;28;20497;-76
2021/07/15 00:30:47;;;;;;;533.83;107.07;;;;;;;;;;5024256;28;20413;-76
2021/07/15 00:33:13;;;;;;;527.67;109.47;;;;;;;;;;5014937;28;20462;-76
2021/07/15 00:35:40;;;;;;;535.30;109.17;;;;;;;;;;5030362;28;20582;-76
2021/07/15 00:38:06;;;;;;;525.00;107.90;;;;;;;;;;5026147;28;20419;-76
2021/07/15 00:40:33;;;;;;;538.07;109.17;;;;;;;;;;5029553;28;20447;-77
2021/07/15 00:42:59;;;;;;;536.00;112.97;;;;;;;;;;5025547;28;20474;-77
2021/07/15 00:45:25;;;;;;;548.90;117.20;;;;;;;;;;5014797;28;20465;-77
2021/07/15 00:47:51;;;;;;;540.23;118.67;;;;;;;;;;5028146;28;20496;-76
2021/07/15 00:50:19;;;;;;;525.87;106.90;;;17.90;99.90;;;;;;5035024;28;20485;-76
2021/07/15 00:52:46;;;;;;;523.77;109.90;;;;;;;;;;5034249;28;20437;-76
2021/07/15 00:55:14;;;;;;;539.37;112.37;;;;;;;;;;5026085;28;20468;-76
2021/07/15 00:57:40;;;;;;;530.27;109.33;;;;;;;;;;5020922;28;20422;-76
2021/07/15 01:00:10;;;;;;;539.67;109.47;;;;;;;;;;5014698;28;20524;-76
2021/07/15 01:02:36;;;;;;;556.23;127.83;;;;;;;;;;5020609;28;20412;-77
2021/07/15 01:05:10;;;;;;;537.27;109.73;;;;;;;;;;5029674;28;20513;-77
2021/07/15 01:07:36;;;;;;;548.80;134.03;;;;;;;;;;5024263;28;20418;-77
2021/07/15 01:10:03;;;;;;;537.10;113.53;;;;;;;;;;5032221;28;20425;-77
2021/07/15 01:12:49;;;;;;;533.57;109.70;;;;;;;;;;5033961;28;20495;-77
2021/07/15 01:15:17;;;;;;;528.97;107.87;;;;;;;;;;4999109;28;20968;-77
2021/07/15 01:18:07;;;;;;;535.57;115.23;;;17.80;99.90;;;;;;5011559;28;20930;-77
2021/07/15 01:21:03;;;;;;;524.60;111.17;;;17.80;99.90;;;;;;4994047;28;20433;-77
2021/07/15 01:23:41;;;;;;;539.20;111.60;;;;;;;;;;4995766;28;20925;-77
2021/07/15 01:26:26;;;;;;;529.47;109.00;;;;;;;;;;4992172;28;20437;-76
2021/07/15 01:29:19;;;;;;;535.83;109.73;;;17.80;99.90;;;;;;4998258;28;20444;-76
2021/07/15 01:31:47;;;;;;;549.37;113.77;;;;;;;;;;4993642;28;20446;-77
2021/07/15 01:34:15;;;;;;;524.10;109.00;;;;;;;;;;4992261;28;20488;-76
2021/07/15 01:36:45;;;;;;;532.00;109.80;;;17.80;99.90;;;;;;4991068;28;20422;-76
2021/07/15 01:39:11;;;;;;;533.60;113.20;;;;;;;;;;4992482;28;20433;-76
2021/07/15 01:41:39;;;;;;;527.00;108.07;;;;;;;;;;5008845;28;20450;-76
2021/07/15 01:44:15;;;;;;;526.30;107.80;;;;;;;;;;4991957;28;20557;-76
2021/07/15 01:46:42;;;;;;;525.17;109.33;;;;;;;;;;4991928;28;20499;-76
2021/07/15 01:49:08;;;;;;;522.50;107.53;;;;;;;;;;4992148;28;20403;-76
2021/07/15 01:51:35;;;;;;;524.10;107.30;;;;;;;;;;4996054;28;20436;-76
2021/07/15 01:54:02;;;;;;;532.40;110.90;;;17.80;99.90;;;;;;5024273;28;20501;-76
2021/07/15 01:56:29;;;;;;;526.70;109.50;;;17.80;99.90;;;;;;5031817;28;20429;-76
2021/07/15 01:58:56;;;;;;;527.20;108.50;;;;;;;;;;5032656;28;20400;-76
2021/07/15 02:01:23;;;;;;;533.43;111.40;;;;;;;;;;5021502;28;20936;-76
2021/07/15 02:03:54;;;;;;;533.53;110.90;;;17.70;99.90;;;;;;5012991;28;20880;-77
2021/07/15 02:06:22;;;;;;;533.40;110.67;;;;;;;;;;5021705;28;20431;-77
2021/07/15 02:08:48;;;;;;;534.37;111.73;;;;;;;;;;5040077;28;20411;-76
2021/07/15 02:11:15;;;;;;;531.47;111.97;;;;;;;;;;5032977;28;20460;-76
2021/07/15 02:13:43;;;;;;;531.83;110.57;;;17.70;99.90;;;;;;5030951;28;20442;-77
2021/07/15 02:16:09;;;;;;;524.43;110.60;;;;;;;;;;5031192;28;20513;-76
2021/07/15 02:18:37;;;;;;;527.60;109.30;;;17.70;99.90;;;;;;5016621;28;20420;-77
2021/07/15 02:21:04;;;;;;;523.60;108.30;;;;;;;;;;5039182;28;20416;-76
2021/07/15 02:23:30;;;;;;;532.70;112.40;;;;;;;;;;5032453;28;20411;-76
2021/07/15 02:25:57;;;;;;;521.80;108.73;;;17.70;99.90;;;;;;5028414;28;20461;-76
2021/07/15 02:28:27;;;;;;;523.90;109.50;;;17.70;99.90;;;;;;5014347;28;20421;-76
2021/07/15 02:30:59;;;;;;;524.17;107.87;;;17.60;99.90;;;;;;5012844;28;20421;-77
2021/07/15 02:33:28;;;;;;;521.70;107.63;;;;;;;;;;5012959;28;20711;-77
2021/07/15 02:35:58;;;;;;;525.77;110.47;;;;;;;;;;5021586;28;20437;-77
2021/07/15 02:38:24;;;;;;;528.03;107.93;;;;;;;;;;5015986;28;20915;-76
2021/07/15 02:40:50;;;;;;;532.60;111.67;;;;;;;;;;5032410;28;20652;-76
2021/07/15 02:43:17;;;;;;;527.00;109.80;;;;;;;;;;5018994;28;20471;-76
2021/07/15 02:45:42;;;;;;;543.70;114.20;;;;;;;;;;5015266;28;20793;-76
2021/07/15 02:48:11;;;;;;;526.37;107.37;;;;;;;;;;5024190;28;20472;-77
2021/07/15 02:50:37;;;;;;;522.97;107.83;;;;;;;;;;5030960;28;20412;-77
2021/07/15 02:53:04;;;;;;;520.97;107.10;;;;;;;;;;5032205;28;20476;-77
2021/07/15 02:55:30;;;;;;;520.67;108.57;;;;;;;;;;5031290;28;20421;-77
2021/07/15 02:58:08;;;;;;;524.80;107.87;;;;;;;;;;5021674;28;21030;-77
2021/07/15 03:00:40;;;;;;;529.53;109.27;;;;;;;;;;5012231;28;20423;-77
2021/07/15 03:03:25;;;;;;;542.53;110.60;;;;;;;;;;5029454;28;20416;-77
2021/07/15 03:06:01;;;;;;;523.93;109.00;;;;;;;;;;5031557;28;20463;-76
2021/07/15 03:08:34;;;;;;;529.90;108.03;;;;;;;;;;5031551;28;20507;-76
2021/07/15 03:11:03;;;;;;;523.10;108.03;;;17.50;99.90;;;;;;5021930;28;20417;-76
2021/07/15 03:13:30;;;;;;;526.97;108.70;;;;;;;;;;5012076;28;20417;-77
2021/07/15 03:15:57;;;;;;;541.83;115.57;;;;;;;;;;5012566;28;20825;-77
2021/07/15 03:18:24;;;;;;;526.10;108.40;;;;;;;;;;5013753;28;20406;-77
2021/07/15 03:20:52;;;;;;;524.60;107.43;;;;;;;;;;5017212;28;20424;-77
2021/07/15 03:23:19;;;;;;;536.50;112.70;;;;;;;;;;5024898;28;20416;-77
2021/07/15 03:25:49;;;;;;;543.10;111.53;;;;;;;;;;5035301;28;20463;-76
2021/07/15 03:28:16;;;;;;;531.30;107.37;;;;;;;;;;5035956;28;20484;-76
2021/07/15 03:30:42;;;;;;;552.23;114.20;;;;;;;;;;5024404;28;20413;-77
2021/07/15 03:33:09;;;;;;;541.47;109.43;;;;;;;;;;5030925;28;20453;-77
2021/07/15 03:35:36;;;;;;;530.63;111.03;;;;;;;;;;5019535;28;20432;-77
2021/07/15 03:38:03;;;;;;;530.57;111.60;;;;;;;;;;5029626;28;20445;-77
2021/07/15 03:40:30;;;;;;;535.20;113.00;;;;;;;;;;5035068;28;20401;-76
2021/07/15 03:42:57;;;;;;;544.93;112.90;;;17.50;99.90;;;;;;5032783;28;20425;-77
2021/07/15 03:45:24;;;;;;;528.97;107.27;;;;;;;;;;5035137;28;20452;-77
2021/07/15 03:47:52;;;;;;;531.17;110.27;;;;;;;;;;5035421;28;20402;-77
2021/07/15 03:50:28;;;;;;;542.87;114.53;;;;;;;;;;5032073;28;20528;-76
2021/07/15 03:53:00;;;;;;;540.33;111.93;;;17.50;99.90;;;;;;5031776;28;20521;-77
2021/07/15 03:55:27;;;;;;;531.47;107.47;;;;;;;;;;5033482;28;20470;-85
2021/07/15 03:57:53;;;;;;;538.50;115.73;;;;;;;;;;5034882;28;20405;-84
2021/07/15 04:00:21;;;;;;;531.90;107.40;;;;;;;;;;5023723;28;20443;-85
2021/07/15 04:02:47;;;;;;;545.90;113.00;;;;;;;;;;5033278;28;20451;-84
2021/07/15 04:05:14;;;;;;;543.07;113.47;;;;;;;;;;5027410;28;20487;-84
2021/07/15 04:07:40;;;;;;;539.90;111.70;;;;;;;;;;5034023;28;20421;-84
2021/07/15 04:10:07;;;;;;;524.67;107.20;;;;;;;;;;5033529;28;20417;-84
2021/07/15 04:12:35;;;;;;;528.47;106.60;;;;;;;;;;5034151;28;20419;-84
2021/07/15 04:15:01;;;;;;;525.77;105.93;;;;;;;;;;5026961;28;20512;-84
2021/07/15 04:17:31;;;;;;;528.07;110.47;;;;;;;;;;5033312;28;20511;-77
2021/07/15 04:20:00;;;;;;;611.87;138.30;;;;;;;;;;5025664;28;20421;-77
2021/07/15 04:22:28;;;;;;;534.33;111.07;;;17.70;1.00;;;;;;5033489;28;20411;-77
2021/07/15 04:24:55;;;;;;;539.90;111.40;;;;;;;;;;5033529;28;20863;-77
2021/07/15 04:27:21;;;;;;;532.97;111.07;;;;;;;;;;5034113;28;20412;-77
2021/07/15 04:29:47;;;;;;;528.63;108.10;;;;;;;;;;5022083;28;20909;-77
2021/07/15 04:32:16;;;;;;;531.20;111.00;;;;;;;;;;5034302;28;20578;-77
2021/07/15 04:34:42;;;;;;;525.23;107.40;;;;;;;;;;5027297;28;20436;-77
2021/07/15 04:37:09;;;;;;;581.03;137.20;;;;;;;;;;5034890;28;20401;-78
2021/07/15 04:39:35;;;;;;;540.37;119.13;;;;;;;;;;5034454;28;20413;-78
2021/07/15 04:42:03;;;;;;;555.20;117.27;;;17.90;1.00;;;;;;5034316;28;20404;-78
2021/07/15 04:44:31;;;;;;;543.30;122.73;;;;;;;;;;5023705;28;20480;-86
2021/07/15 04:46:57;;;;;;;544.20;112.53;;;;;;;;;;5014673;28;20405;-86
2021/07/15 04:49:23;;;;;;;541.77;109.63;;;;;;;;;;5014373;28;20401;-86
2021/07/15 04:51:49;;;;;;;543.30;112.83;;;;;;;;;;5034214;28;20801;-86
2021/07/15 04:54:16;;;;;;;537.00;110.43;;;;;;;;;;5032864;28;20483;-86
2021/07/15 04:56:43;;;;;;;533.27;110.37;;;;;;;;;;5016417;28;20449;-86
2021/07/15 04:59:10;;;;;;;537.50;110.53;;;;;;;;;;5029688;28;20460;-86
2021/07/15 05:01:36;;;;;;;531.63;107.23;;;18.10;99.90;;;;;;5014558;28;20410;-86
2021/07/15 05:04:03;;;;;;;544.77;112.13;;;;;;;;;;5020216;28;20543;-86
2021/07/15 05:06:29;;;;;;;575.10;121.00;;;;;;;;;;5048622;28;20859;-86
2021/07/15 05:08:55;;;;;;;534.50;108.40;;;;;;;;;;5034080;28;20425;-85
2021/07/15 05:11:21;;;;;;;541.93;111.83;;;;;;;;;;5032327;28;20416;-85
2021/07/15 05:13:47;;;;;;;533.50;107.57;;;;;;;;;;5033617;28;20404;-85
2021/07/15 05:16:16;;;;;;;550.63;114.47;;;;;;;;;;5031776;28;20418;-87
2021/07/15 05:18:42;;;;;;;618.17;151.87;;;;;;;;;;5034021;28;20436;-87
2021/07/15 05:21:09;;;;;;;534.77;112.77;;;;;;;;;;5032452;28;20446;-87
2021/07/15 05:23:35;;;;;;;541.27;124.00;;;;;;;;;;5032652;28;20489;-83
2021/07/15 05:26:01;;;;;;;536.97;116.53;;;;;;;;;;5032037;28;20871;-82
2021/07/15 05:28:27;;;;;;;577.83;136.83;;;;;;;;;;5014245;28;20906;-82
2021/07/15 05:30:54;;;;;;;597.97;135.97;;;;;;;;;;5019173;28;20432;-83
2021/07/15 05:33:20;;;;;;;546.17;121.47;;;;;;;;;;5031632;28;20921;-82
2021/07/15 05:35:46;;;;;;;537.60;109.10;;;;;;;;;;5026644;28;20458;-82
2021/07/15 05:38:12;;;;;;;576.17;124.13;;;;;;;;;;5034097;28;20429;-87
2021/07/15 05:40:39;;;;;;;549.60;116.07;;;;;;;;;;5033796;28;20399;-87
2021/07/15 05:43:05;;;;;;;544.17;109.57;;;;;;;;;;5034280;28;20406;-87
2021/07/15 05:45:40;;;;;;;545.13;110.27;;;;;;;;;;5031900;28;20510;-86
2021/07/15 05:48:28;;;;;;;543.37;111.20;;;;;;;;;;5034213;28;20480;-85
2021/07/15 05:51:21;;;;;;;560.17;118.03;;;19.20;99.90;;;;;;5031803;28;20421;-86
2021/07/15 05:53:48;;;;;;;562.37;120.27;;;;;;;;;;5024507;28;20520;-77
2021/07/15 05:56:14;;;;;;;544.27;117.40;;;;;;;;;;5030917;28;20414;-75
2021/07/15 05:58:40;;;;;;;549.23;113.60;;;;;;;;;;5033673;28;20882;-75
2021/07/15 06:01:10;;;;;;;546.37;116.00;;;;;;;;;;5033694;28;20886;-75
2021/07/15 06:03:36;;;;;;;557.23;117.63;;;;;;;;;;5034021;28;20886;-77
2021/07/15 06:06:02;;;;;;;546.93;115.30;;;;;;;;;;5026834;28;20846;-76
2021/07/15 06:08:29;;;;;;;556.13;116.83;;;;;;;;;;5032594;28;20408;-76
2021/07/15 06:10:55;;;;;;;555.80;118.10;;;;;;;;;;5032632;28;20434;-76
2021/07/15 06:13:21;;;;;;;635.33;161.90;;;;;;;;;;5032443;28;20489;-76
2021/07/15 06:15:47;;;;;;;560.73;137.23;;;;;;;;;;5032778;28;20402;-76
2021/07/15 06:18:13;;;;;;;551.70;116.07;;;;;;;;;;5032496;28;20901;-76
2021/07/15 06:20:39;;;;;;;560.13;120.77;;;;;;;;;;5032159;28;20406;-76
2021/07/15 06:23:05;;;;;;;600.03;145.87;;;;;;;;;;5033023;28;20406;-76
2021/07/15 06:25:32;;;;;;;550.30;115.13;;;;;;;;;;5031343;28;20445;-76
2021/07/15 06:27:58;;;;;;;550.93;115.07;;;;;;;;;;5012349;28;20403;-76
2021/07/15 06:30:24;;;;;;;549.00;116.60;;;;;;;;;;5028858;28;20503;-76
2021/07/15 06:32:50;;;;;;;556.83;122.33;;;;;;;;;;5050287;28;21005;-76
2021/07/15 06:35:17;;;;;;;572.33;138.97;;;;;;;;;;5051990;28;20414;-76
2021/07/15 06:37:45;;;;;;;624.80;168.00;;;;;;;;;;5052689;28;20405;-76
2021/07/15 06:40:11;;;;;;;565.63;156.37;;;;;;;;;;5052109;28;20482;-76
2021/07/15 06:42:37;;;;;;;547.67;117.03;;;;;;;;;;5052223;28;20392;-76
2021/07/15 06:45:06;;;;;;;560.57;152.73;;;;;;;;;;5051859;28;20544;-76
2021/07/15 06:47:32;;;;;;;545.70;116.20;;;;;;;;;;5035846;28;20424;-76
2021/07/15 06:49:58;;;;;;;565.47;138.87;;;;;;;;;;5016581;28;20431;-76
2021/07/15 06:52:27;;;;;;;557.37;137.03;;;;;;;;;;5052318;28;20776;-76
2021/07/15 06:54:53;;;;;;;562.90;127.83;;;;;;;;;;5034751;28;20481;-77
2021/07/15 06:57:19;;;;;;;574.60;136.03;;;;;;;;;;5030860;28;20423;-77
2021/07/15 06:59:45;;;;;;;559.23;123.40;;;;;;;;;;5032035;28;20446;-76
2021/07/15 07:02:11;;;;;;;595.33;186.13;;;;;;;;;;5031922;28;20723;-77
2021/07/15 07:04:37;;;;;;;569.87;128.47;;;;;;;;;;5030823;28;20476;-77
2021/07/15 07:07:03;;;;;;;571.40;150.27;;;;;;;;;;5011834;28;20390;-77
2021/07/15 07:09:29;;;;;;;575.80;128.27;;;;;;;;;;5013287;28;20397;-76
2021/07/15 07:11:55;;;;;;;569.03;129.17;;;;;;;;;;5012320;28;20743;-76
2021/07/15 07:14:21;;;;;;;559.50;130.03;;;;;;;;;;5012401;28;20425;-76
2021/07/15 07:16:47;;;;;;;577.80;170.20;;;;;;;;;;5012494;28;20398;-76
2021/07/15 07:19:13;;;;;;;572.70;141.53;;;;;;;;;;5011686;28;20399;-76
2021/07/15 07:21:39;;;;;;;582.53;138.50;;;;;;;;;;5012099;28;20412;-76
2021/07/15 07:24:05;;;;;;;563.90;135.70;;;;;;;;;;5012570;28;20397;-76
2021/07/15 07:26:31;;;;;;;557.17;128.23;;;;;;;;;;5011842;28;20398;-76
2021/07/15 07:28:57;;;;;;;569.80;127.40;;;;;;;;;;5012068;28;20390;-76
2021/07/15 07:31:25;;;;;;;569.27;136.33;;;;;;;;;;5012325;28;20744;-76
2021/07/15 07:33:51;;;;;;;552.33;119.83;;;;;;;;;;5011721;28;20509;-76
2021/07/15 07:36:17;;;;;;;568.90;132.10;;;;;;;;;;5011982;28;20740;-76
2021/07/15 07:38:43;;;;;;;564.23;126.43;;;;;;;;;;5022463;28;20761;-77
2021/07/15 07:41:10;;;;;;;556.50;122.13;;;;;;;;;;5032401;28;20405;-77
2021/07/15 07:43:37;;;;;;;554.37;123.60;;;;;;;;;;5031355;28;20414;-77
2021/07/15 07:46:03;;;;;;;554.80;125.93;;;;;;;;;;5026121;28;21028;-77
2021/07/15 07:48:29;;;;;;;567.77;125.93;;;;;;;;;;5037762;28;20908;-77
2021/07/15 07:50:58;;;;;;;572.13;125.93;;;;;;;;;;5024746;28;20521;-77
2021/07/15 07:53:25;;;;;;;551.20;124.80;;;;;;;;;;5031355;28;20806;-77
2021/07/15 07:55:51;;;;;;;576.30;139.37;;;;;;;;;;5027485;28;20434;-77
2021/07/15 07:58:17;;;;;;;562.07;129.53;;;;;;;;;;5030412;28;20480;-77
2021/07/15 08:00:42;;;;;;;577.40;136.73;;;;;;;;;;5031519;28;20410;-77
2021/07/15 08:03:08;;;;;;;555.93;124.77;;;;;;;;;;5031590;28;20893;-77
2021/07/15 08:05:38;;;;;;;554.37;125.47;;;;;;;;;;5027184;28;20498;-77
2021/07/15 08:08:04;;;;;;;561.60;131.03;;;;;;;;;;5035011;28;20409;-76
2021/07/15 08:10:30;;;;;;;554.90;128.00;;;;;;;;;;5034851;28;20477;-76
2021/07/15 08:12:56;;;;;;;560.33;129.57;;;;;;;;;;5032774;28;21362;-76
2021/07/15 08:15:22;;;;;;;550.77;125.53;;;;;;;;;;5034895;28;20397;-80
2021/07/15 08:17:49;;;;;;;562.63;130.40;;;;;;;;;;5034739;28;20418;-80
2021/07/15 08:20:15;;;;;;;562.20;129.23;;;;;;;;;;5034673;28;20862;-80
2021/07/15 08:22:41;;;;;;;566.77;133.97;;;22.90;99.90;;;;;;5034616;28;20449;-77
2021/07/15 08:25:08;;;;;;;551.60;126.93;;;23.00;99.90;;;;;;5034622;28;20949;-76
2021/07/15 08:27:34;;;;;;;561.60;132.90;;;;;;;;;;5034051;28;20419;-76
2021/07/15 08:30:01;;;;;;;568.73;132.37;;;;;;;;;;5034916;28;20727;-76
2021/07/15 08:32:27;;;;;;;568.83;135.40;;;;;;;;;;5033838;28;20500;-76
2021/07/15 08:34:53;;;;;;;574.83;137.57;;;;;;;;;;5034433;28;20787;-76
2021/07/15 08:37:19;;;;;;;558.93;133.57;;;;;;;;;;5034600;28;20727;-77
2021/07/15 08:39:45;;;;;;;556.57;129.50;;;;;;;;;;5034774;28;20451;-77
2021/07/15 08:42:11;;;;;;;572.07;137.90;;;;;;;;;;5033408;28;20401;-76
2021/07/15 08:44:39;;;;;;;574.80;137.43;;;22.80;99.90;;;;;;5034323;28;20600;-76
2021/07/15 08:47:05;;;;;;;557.90;133.23;;;;;;;;;;5034082;28;20898;-76
2021/07/15 08:49:31;;;;;;;580.43;138.97;;;;;;;;;;5033607;28;20423;-76
2021/07/15 08:51:57;;;;;;;570.93;134.87;;;;;;;;;;5033499;28;20429;-76
2021/07/15 08:54:33;;;;;;;574.50;137.33;;;;;;;;;;5034217;28;20392;-76
2021/07/15 08:56:59;;;;;;;566.90;131.87;;;;;;;;;;5032691;28;20565;-76
2021/07/15 08:59:25;;;;;;;560.03;127.57;;;;;;;;;;5031118;28;20445;-76
2021/07/15 09:01:55;;;;;;;557.07;131.07;;;;;;;;;;5033814;28;20388;-76
2021/07/15 09:04:22;;;;;;;552.90;125.47;;;;;;;;;;5033685;28;20548;-76
2021/07/15 09:06:49;;;;;;;568.80;137.10;;;;;;;;;;5029984;28;20417;-76
2021/07/15 09:09:15;;;;;;;557.10;128.73;;;;;;;;;;5033892;28;20397;-76
2021/07/15 09:11:42;;;;;;;570.53;137.77;;;;;;;;;;5048833;28;20420;-76
2021/07/15 09:14:19;;;;;;;583.30;140.43;;;23.30;99.90;;;;;;5033155;28;20392;-76
2021/07/15 09:16:57;;;;;;;578.13;138.03;;;23.50;99.90;;;;;;5032990;28;20427;-76
2021/07/15 09:19:24;;;;;;;566.93;136.33;;;;;;;;;;5033794;28;20891;-76
2021/07/15 09:21:51;;;;;;;574.30;139.03;;;;;;;;;;5032681;28;20421;-76
2021/07/15 09:24:26;;;;;;;573.17;138.20;;;;;;;;;;5034125;28;20498;-76
2021/07/15 09:26:52;;;;;;;583.30;145.47;;;;;;;;;;5033094;28;20400;-76
2021/07/15 09:29:18;;;;;;;680.77;209.90;;;24.70;99.90;;;;;;5033058;28;20500;-76
2021/07/15 09:32:10;;;;;;;575.67;146.50;;;;;;;;;;5033394;28;20792;-76
2021/07/15 09:34:37;;;;;;;574.77;142.17;;;;;;;;;;5031216;28;20443;-78
2021/07/15 09:37:13;;;;;;;573.20;143.77;;;;;;;;;;5032780;28;20418;-76
2021/07/15 09:39:46;;;;;;;570.97;141.90;;;;;;;;;;5033553;28;20397;-76
2021/07/15 09:42:18;;;;;;;575.07;143.73;;;;;;;;;;5033185;28;20405;-77
2021/07/15 09:44:46;;;;;;;580.97;147.50;;;;;;;;;;5032509;28;20457;-76
2021/07/15 09:47:33;;;;;;;569.27;142.43;;;;;;;;;;5033009;28;20436;-77
2021/07/15 09:50:02;;;;;;;580.90;147.63;;;;;;;;;;5013133;28;20464;-77
2021/07/15 09:52:28;;;;;;;581.13;145.70;;;;;;;;;;5012984;28;20470;-76
2021/07/15 09:55:14;;;;;;;599.17;164.27;;;;;;;;;;5013798;28;20954;-76
2021/07/15 09:57:40;;;;;;;587.53;147.93;;;;;;;;;;5022461;28;20431;-76
2021/07/15 10:00:07;;;;;;;582.33;148.27;;;;;;;;;;5031945;28;20913;-77
2021/07/15 10:02:33;;;;;;;587.57;149.47;;;;;;;;;;5032906;28;20401;-77
2021/07/15 10:04:59;;;;;;;631.10;155.50;;;;;;;;;;5030950;28;20438;-77
2021/07/15 10:07:26;;;;;;;578.37;146.10;;;;;;;;;;5032703;28;20476;-77
2021/07/15 10:10:10;;;;;;;592.13;161.07;;;;;;;;;;5032730;28;20406;-76
2021/07/15 10:12:36;;;;;;;581.17;150.17;;;;;;;;;;5032297;28;20732;-76
2021/07/15 10:15:09;;;;;;;582.37;150.17;;;;;;;;;;5030836;28;20882;-76
2021/07/15 10:17:53;;;;;;;581.37;152.03;;;25.80;99.90;;;;;;5032549;28;20416;-76
2021/07/15 10:20:19;;;;;;;589.47;153.90;;;;;;;;;;5032536;28;20959;-76
2021/07/15 10:22:54;;;;;;;604.00;182.60;;;26.10;99.90;;;;;;5032503;28;20445;-76
2021/07/15 10:25:20;;;;;;;590.53;164.03;;;;;;;;;;5033071;28;20511;-77
2021/07/15 10:27:46;;;;;;;580.47;151.03;;;;;;;;;;5025563;28;20460;-76
2021/07/15 10:30:14;;;;;;;592.80;164.03;;;26.10;99.90;;;;;;5027006;28;20427;-77
2021/07/15 10:32:41;;;;;;;588.70;160.90;;;;;;;;;;5033302;28;20923;-77
2021/07/15 10:35:08;;;;;;;583.20;159.57;;;;;;;;;;5034340;28;20544;-77
2021/07/15 10:37:39;;;;;;;589.83;162.77;;;;;;;;;;5052099;28;20428;-77
2021/07/15 10:40:07;;;;;;;578.90;160.23;;;;;;;;;;5052686;28;20375;-76
2021/07/15 10:42:33;;;;;;;588.00;162.37;;;;;;;;;;5040617;28;20401;-76
2021/07/15 10:45:00;;;;;;;582.10;157.20;;;;;;;;;;5032014;28;20481;-76
2021/07/15 10:47:26;;;;;;;583.20;161.93;;;;;;;;;;5032594;28;20410;-76
2021/07/15 10:49:55;;;;;;;581.77;157.27;;;27.00;99.90;;;;;;5052270;28;20397;-76
2021/07/15 10:52:23;;;;;;;577.57;156.23;;;27.20;99.90;;;;;;5052217;28;20756;-75
2021/07/15 10:54:49;;;;;;;578.20;160.20;;;;;;;;;;5052406;28;20481;-76
2021/07/15 10:57:19;;;;;;;578.47;163.10;;;;;;;;;;5039998;28;20397;-76
2021/07/15 10:59:45;;;;;;;580.87;159.40;;;;;;;;;;5028904;28;20716;-76
2021/07/15 11:02:23;;;;;;;579.20;162.10;;;27.40;99.90;;;;;;5032304;28;20538;-76
2021/07/15 11:04:49;;;;;;;591.70;169.30;;;;;;;;;;5030396;28;20461;-76
2021/07/15 11:07:18;;;;;;;579.07;162.83;;;;;;;;;;5031941;28;20379;-76
2021/07/15 11:09:44;;;;;;;571.40;154.33;;;;;;;;;;5032266;28;20677;-76
2021/07/15 11:12:32;;;;;;;587.67;165.10;;;27.40;99.90;;;;;;5030976;28;20428;-77
2021/07/15 11:15:12;;;;;;;570.50;153.53;;;27.40;99.90;;;;;;5032112;28;20406;-77
2021/07/15 11:17:50;;;;;;;573.47;155.70;;;27.10;99.90;;;;;;5030102;28;20413;-77
2021/07/15 11:20:27;;;;;;;584.93;164.90;;;27.00;99.90;;;;;;5031655;28;20388;-77
2021/07/15 11:23:19;;;;;;;571.87;156.00;;;27.10;99.90;;;;;;5032115;28;20403;-77
2021/07/15 11:25:45;;;;;;;574.90;155.63;;;;;;;;;;5031677;28;21667;-77
2021/07/15 11:28:12;;;;;;;728.20;209.10;;;;;;;;;;5027211;28;20462;-77
2021/07/15 11:30:38;;;;;;;579.57;162.00;;;;;;;;;;5029077;28;20417;-77
2021/07/15 11:33:23;;;;;;;579.90;167.27;;;;;;;;;;5030400;28;20472;-78
2021/07/15 11:35:52;;;;;;;582.27;171.63;;;;;;;;;;5031476;28;20397;-77
2021/07/15 11:38:25;;;;;;;586.57;165.23;;;;;;;;;;5031284;28;20410;-77
2021/07/15 11:40:51;;;;;;;587.37;168.47;;;;;;;;;;5034430;28;20478;-77
2021/07/15 11:43:19;;;;;;;576.33;158.37;;;;;;;;;;5035686;28;20829;-77
2021/07/15 11:46:04;;;;;;;580.43;168.90;;;;;;;;;;5035617;28;20455;-77
2021/07/15 11:48:42;;;;;;;592.37;165.90;;;;;;;;;;5028422;28;20770;-77
2021/07/15 11:51:20;;;;;;;578.13;163.70;;;;;;;;;;5032686;28;20425;-77
2021/07/15 11:54:16;;;;;;;644.60;199.23;;;27.90;99.90;;;;;;5035867;28;20440;-77
2021/07/15 11:56:43;;;;;;;585.93;165.13;;;;;;;;;;5055630;28;20444;-77
2021/07/15 11:59:09;;;;;;;579.43;164.37;;;;;;;;;;5038260;28;20763;-77
2021/07/15 12:01:36;;;;;;;606.90;175.67;;;;;;;;;;5028695;28;20414;-77
2021/07/15 12:04:09;;;;;;;574.73;158.90;;;;;;;;;;5035384;28;20434;-77
2021/07/15 12:06:43;;;;;;;598.87;179.13;;;28.40;99.90;;;;;;5033394;28;20399;-77
2021/07/15 12:09:13;;;;;;;590.50;171.40;;;28.30;99.90;;;;;;5035263;28;20445;-77
2021/07/15 12:11:41;;;;;;;593.10;175.63;;;;;;;;;;5034919;28;20438;-77
2021/07/15 12:14:07;;;;;;;580.97;168.10;;;;;;;;;;5033650;28;20906;-77
2021/07/15 12:16:35;;;;;;;578.50;170.27;;;;;;;;;;5034388;28;20421;-77
2021/07/15 12:19:02;;;;;;;582.60;164.60;;;27.90;99.90;;;;;;5034099;28;20384;-77
2021/07/15 12:21:30;;;;;;;596.13;168.90;;;;;;;;;;5032385;28;20449;-77
2021/07/15 12:23:56;;;;;;;574.40;163.23;;;;;;;;;;5025834;28;20457;-82
2021/07/15 12:26:22;;;;;;;576.07;164.60;;;;;;;;;;5032338;28;20827;-81
2021/07/15 12:28:49;;;;;;;584.37;167.00;;;;;;;;;;5032568;28;20807;-81
2021/07/15 12:31:18;;;;;;;577.37;170.20;;;28.30;99.90;;;;;;5020395;28;20418;-81
2021/07/15 12:33:46;;;;;;;582.70;170.37;;;;;;;;;;5024381;28;22452;-81
2021/07/15 12:36:19;;;;;;;588.53;166.47;;;;;;;;;;5028562;28;20807;-81
2021/07/15 12:38:46;;;;;;;575.27;161.20;;;;;;;;;;5034411;28;20501;-81
2021/07/15 12:41:15;;;;;;;585.93;167.93;;;;;;;;;;5034885;28;20410;-81
2021/07/15 12:44:05;;;;;;;580.43;166.67;;;28.00;99.90;;;;;;5034247;28;20397;-81
2021/07/15 12:46:36;;;;;;;568.57;156.37;;;28.20;99.90;;;;;;5048475;28;20415;-81
2021/07/15 12:49:16;;;;;;;572.80;160.27;;;;;;;;;;5034131;28;20744;-81
2021/07/15 12:51:46;;;;;;;739.13;257.03;;;;;;;;;;5032983;28;20397;-81
2021/07/15 12:54:15;;;;;;;574.17;159.43;;;;;;;;;;5034388;28;20394;-81
2021/07/15 12:56:42;;;;;;;588.00;175.93;;;;;;;;;;5033962;28;20423;-82
2021/07/15 12:59:09;;;;;;;574.87;163.70;;;;;;;;;;5020916;28;20393;-81
2021/07/15 13:01:36;;;;;;;581.27;171.10;;;;;;;;;;5029890;28;20408;-81
2021/07/15 13:04:02;;;;;;;587.60;179.53;;;;;;;;;;5034162;28;21026;-81
2021/07/15 13:06:38;;;;;;;633.40;190.53;;;;;;;;;;5025361;28;20427;-82
2021/07/15 13:09:31;;;;;;;576.27;166.70;;;;;;;;;;5032107;28;20560;-82
2021/07/15 13:14:43;;;;;;;594.10;181.77;;;30.00;99.90;;;;;;5014270;28;20419;-81
2021/07/15 13:17:09;;;;;;;588.33;174.73;;;;;;;;;;5028173;28;20422;-81
2021/07/15 13:19:38;;;;;;;591.80;177.87;;;30.00;99.90;;;;;;5033304;28;20393;-82
2021/07/15 13:22:22;;;;;;;584.47;175.67;;;;;;;;;;5033802;28;20369;-81
2021/07/15 13:25:01;;;;;;;612.70;188.77;;;;;;;;;;5032515;28;20437;-81
2021/07/15 13:27:27;;;;;;;586.07;180.90;;;;;;;;;;5034069;28;20756;-81
2021/07/15 13:29:53;;;;;;;601.43;182.50;;;;;;;;;;5032494;28;20427;-81
2021/07/15 13:32:23;;;;;;;586.57;179.57;;;;;;;;;;5033650;28;20442;-82
2021/07/15 13:34:51;;;;;;;591.80;185.67;;;30.00;99.90;;;;;;5032957;28;20426;-81
2021/07/15 13:37:24;;;;;;;583.17;171.87;;;;;;;;;;5033554;28;20480;-81
2021/07/15 13:39:50;;;;;;;608.50;191.60;;;;;;;;;;5031974;28;20421;-81
2021/07/15 13:42:20;;;;;;;604.57;192.93;;;;;;;;;;5030197;28;20418;-81
2021/07/15 13:45:10;;;;;;;577.67;174.73;;;30.20;99.90;;;;;;5025652;28;20459;-81
2021/07/15 13:47:43;;;;;;;588.40;182.37;;;30.20;99.90;;;;;;5033049;28;20411;-81